Time;durP1;ratioP1;P1;durP2;ratioP2;P2;SDS_P1;SDS_P2;PMS_P1;PMS_P2;Temp;Humidity;BMP_temperature;BMP_pressure;BME280_temperature;BME280_humidity;BME280_pressure;Samples;Min_cycle;Max_cycle;Signal;HPM_P1;HPM_P2
2022/05/28 00:01:46;;;;;;;10.15;2.42;;;12.30;84.00;;;;;;4996780;28;20031;-73
2022/05/28 00:04:15;;;;;;;14.98;2.17;;;12.30;84.00;;;;;;4997933;28;20026;-75
2022/05/28 00:06:40;;;;;;;7.45;2.13;;;12.10;84.20;;;;;;4997918;28;20541;-74
2022/05/28 00:09:06;;;;;;;11.57;1.77;;;12.20;84.60;;;;;;4997827;28;20114;-74
2022/05/28 00:11:36;;;;;;;13.18;2.25;;;12.10;84.80;;;;;;4996413;28;20641;-73
2022/05/28 00:14:03;;;;;;;9.45;1.77;;;12.10;85.50;;;;;;4996693;28;20026;-75
2022/05/28 00:16:28;;;;;;;9.77;2.22;;;12.00;85.10;;;;;;4996504;28;20050;-73
2022/05/28 00:18:54;;;;;;;9.55;1.73;;;12.00;85.10;;;;;;4997709;28;20027;-73
2022/05/28 00:21:22;;;;;;;14.48;2.22;;;12.00;85.50;;;;;;4997974;28;20104;-73
2022/05/28 00:23:48;;;;;;;9.93;1.55;;;11.90;85.70;;;;;;4997721;28;20023;-73
2022/05/28 00:26:14;;;;;;;10.73;2.25;;;11.90;86.10;;;;;;4997287;28;20030;-73
2022/05/28 00:28:40;;;;;;;15.23;2.63;;;11.90;86.40;;;;;;4997439;28;20035;-73
2022/05/28 00:31:06;;;;;;;9.80;1.83;;;11.80;86.70;;;;;;4996124;28;20089;-73
2022/05/28 00:33:32;;;;;;;12.70;2.25;;;11.80;86.70;;;;;;4996118;28;20033;-73
2022/05/28 00:35:59;;;;;;;9.57;2.50;;;11.80;87.60;;;;;;4997387;28;20029;-74
2022/05/28 00:38:25;;;;;;;14.20;2.45;;;11.70;88.50;;;;;;4996203;28;20081;-74
2022/05/28 00:40:53;;;;;;;15.50;3.03;;;11.70;88.30;;;;;;4997212;28;20036;-73
2022/05/28 00:43:19;;;;;;;13.90;2.30;;;11.70;89.00;;;;;;4997258;28;20033;-73
2022/05/28 00:45:47;;;;;;;17.75;3.25;;;11.60;88.70;;;;;;4997599;28;20030;-73
2022/05/28 00:48:21;;;;;;;12.32;2.78;;;11.70;89.10;;;;;;4996321;28;20023;-74
2022/05/28 00:50:46;;;;;;;9.60;2.67;;;11.50;89.30;;;;;;4997592;28;20057;-74
2022/05/28 00:53:12;;;;;;;14.25;2.88;;;11.60;89.60;;;;;;4997398;28;20113;-73
2022/05/28 00:55:38;;;;;;;13.45;2.78;;;11.50;89.80;;;;;;4996843;28;20030;-73
2022/05/28 00:58:08;;;;;;;12.63;2.25;;;11.60;90.10;;;;;;4996811;28;20105;-74
2022/05/28 01:00:34;;;;;;;12.15;2.70;;;11.40;90.20;;;;;;4995707;28;20027;-73
2022/05/28 01:03:13;;;;;;;11.70;2.60;;;11.40;90.30;;;;;;4996275;28;20038;-74
2022/05/28 01:05:48;;;;;;;13.63;2.30;;;11.40;90.40;;;;;;4997151;28;20391;-74
2022/05/28 01:08:37;;;;;;;14.20;2.03;;;11.40;90.60;;;;;;4996918;28;20031;-73
2022/05/28 01:11:12;;;;;;;14.10;2.42;;;11.30;90.60;;;;;;4996916;28;20030;-74
2022/05/28 01:13:56;;;;;;;9.60;2.47;;;11.30;90.90;;;;;;4996624;28;20030;-73
2022/05/28 01:16:43;;;;;;;10.60;2.40;;;11.30;91.00;;;;;;4995094;28;20506;-73
2022/05/28 01:19:32;;;;;;;16.47;3.13;;;11.30;91.20;;;;;;4997060;28;20030;-73
2022/05/28 01:22:13;;;;;;;14.03;2.87;;;11.20;91.30;;;;;;4996677;28;20419;-74
2022/05/28 01:24:49;;;;;;;15.68;3.00;;;11.20;91.50;;;;;;4996433;28;20023;-73
2022/05/28 01:27:41;;;;;;;10.40;2.33;;;11.20;91.70;;;;;;4996586;28;20471;-73
2022/05/28 01:30:10;;;;;;;12.97;3.07;;;11.10;91.70;;;;;;4996553;28;20022;-73
2022/05/28 01:32:37;;;;;;;13.83;2.37;;;11.10;91.90;;;;;;4996526;28;20101;-73
2022/05/28 01:35:11;;;;;;;10.48;2.85;;;11.10;92.40;;;;;;4996450;28;20026;-73
2022/05/28 01:37:37;;;;;;;;;;;11.10;92.80;;;;;;4996879;28;20480;-74
2022/05/28 01:40:07;;;;;;;21.67;3.67;;;11.20;93.30;;;;;;4978960;28;19905;-73
2022/05/28 01:42:36;;;;;;;14.37;3.07;;;11.00;93.50;;;;;;4996298;28;20025;-73
2022/05/28 01:45:03;;;;;;;18.10;3.17;;;11.10;93.70;;;;;;4994836;28;20041;-73
2022/05/28 01:47:29;;;;;;;10.70;2.40;;;11.00;94.20;;;;;;4995315;28;20930;-73
2022/05/28 01:49:57;;;;;;;13.07;2.97;;;11.00;94.30;;;;;;4994448;28;20038;-74
2022/05/28 01:52:25;;;;;;;9.27;2.00;;;11.00;94.20;;;;;;4995087;28;20144;-73
2022/05/28 01:54:52;;;;;;;14.23;2.73;;;11.00;94.30;;;;;;4993533;28;20101;-74
2022/05/28 01:57:18;;;;;;;16.63;3.23;;;11.00;94.70;;;;;;4995678;28;20026;-74
2022/05/28 01:59:44;;;;;;;15.85;2.75;;;11.00;94.80;;;;;;4995774;28;20041;-73
2022/05/28 02:02:12;;;;;;;13.43;3.00;;;11.00;95.10;;;;;;4994306;28;20383;-73
2022/05/28 02:04:40;;;;;;;9.68;2.40;;;11.00;95.30;;;;;;4995601;28;20031;-73
2022/05/28 02:07:06;;;;;;;12.87;2.37;;;11.00;95.40;;;;;;4995971;28;20064;-73
2022/05/28 02:09:39;;;;;;;17.30;2.77;;;10.90;95.40;;;;;;4995888;28;20033;-73
2022/05/28 02:12:09;;;;;;;8.13;2.42;;;11.00;95.80;;;;;;4995449;28;20030;-73
2022/05/28 02:14:55;;;;;;;10.55;2.35;;;10.90;96.00;;;;;;4995969;28;20022;-73
2022/05/28 02:17:25;;;;;;;10.00;2.60;;;11.00;95.80;;;;;;4995531;28;20046;-73
2022/05/28 02:19:58;;;;;;;11.20;2.90;;;11.10;96.20;;;;;;4995476;28;20026;-73
2022/05/28 02:22:29;;;;;;;16.08;3.17;;;11.00;95.90;;;;;;4995377;28;20026;-73
2022/05/28 02:25:04;;;;;;;15.10;3.37;;;10.90;96.00;;;;;;4995536;28;20037;-73
2022/05/28 02:27:31;;;;;;;12.73;2.33;;;11.00;96.20;;;;;;4995803;28;20034;-73
2022/05/28 02:30:00;;;;;;;13.43;2.80;;;11.00;96.50;;;;;;4995481;28;20440;-74
2022/05/28 02:32:26;;;;;;;14.20;2.67;;;11.10;96.40;;;;;;4995108;28;20499;-75
2022/05/28 02:34:52;;;;;;;13.70;2.37;;;11.10;97.00;;;;;;4995014;28;20064;-74
2022/05/28 02:37:23;;;;;;;12.90;2.90;;;11.00;97.20;;;;;;4994939;28;20078;-74
2022/05/28 02:39:49;;;;;;;11.68;2.33;;;11.10;97.40;;;;;;4995026;28;20059;-73
2022/05/28 02:42:16;;;;;;;16.53;2.47;;;11.00;97.60;;;;;;4994774;28;20026;-73
2022/05/28 02:44:42;;;;;;;14.75;2.33;;;11.00;98.00;;;;;;4993532;28;20030;-73
2022/05/28 02:47:07;;;;;;;16.27;2.60;;;11.00;97.90;;;;;;4994761;28;20031;-73
2022/05/28 02:49:33;;;;;;;14.97;2.27;;;11.00;97.80;;;;;;4994590;28;20109;-73
2022/05/28 02:52:03;;;;;;;14.77;2.20;;;11.10;97.90;;;;;;4994798;28;20704;-74
2022/05/28 02:54:30;;;;;;;11.03;2.17;;;11.00;97.90;;;;;;4994637;28;20065;-73
2022/05/28 02:56:56;;;;;;;12.10;2.57;;;11.00;98.20;;;;;;4994736;28;20058;-73
2022/05/28 02:59:21;;;;;;;13.90;2.45;;;11.00;98.10;;;;;;4994531;28;20486;-73
2022/05/28 03:01:47;;;;;;;11.80;2.43;;;11.10;98.20;;;;;;4994613;28;20026;-74
2022/05/28 03:04:13;;;;;;;10.40;1.80;;;10.90;98.20;;;;;;4994972;28;20113;-73
2022/05/28 03:06:38;;;;;;;16.07;2.27;;;11.00;98.40;;;;;;4994556;28;20097;-74
2022/05/28 03:09:06;;;;;;;13.13;2.93;;;11.00;98.40;;;;;;4994536;28;20451;-74
2022/05/28 03:11:33;;;;;;;9.80;2.00;;;11.20;98.60;;;;;;4993172;28;20470;-73
2022/05/28 03:13:59;;;;;;;13.97;2.30;;;11.00;98.60;;;;;;4991193;28;20036;-73
2022/05/28 03:16:25;;;;;;;18.57;3.50;;;11.10;98.70;;;;;;4992761;28;20506;-73
2022/05/28 03:18:51;;;;;;;11.57;1.77;;;11.00;98.60;;;;;;4985303;28;20031;-73
2022/05/28 03:21:17;;;;;;;16.10;2.35;;;11.00;98.70;;;;;;4994235;28;20525;-73
2022/05/28 03:23:47;;;;;;;20.52;2.28;;;11.00;98.90;;;;;;4994057;28;20041;-74
2022/05/28 03:26:13;;;;;;;16.85;2.60;;;11.00;98.90;;;;;;4994028;28;20037;-73
2022/05/28 03:28:38;;;;;;;12.57;2.27;;;11.00;98.80;;;;;;4994305;28;20030;-73
2022/05/28 03:31:04;;;;;;;12.18;2.03;;;11.00;98.80;;;;;;5009421;28;20034;-73
2022/05/28 03:33:30;;;;;;;12.45;1.75;;;11.00;98.80;;;;;;4994380;28;20053;-73
2022/05/28 03:35:55;;;;;;;15.60;2.53;;;10.90;98.80;;;;;;4994349;28;20030;-72
2022/05/28 03:38:21;;;;;;;22.00;3.28;;;11.00;99.10;;;;;;4993932;28;20101;-73
2022/05/28 03:40:47;;;;;;;8.87;1.60;;;10.90;99.20;;;;;;4994233;28;20026;-73
2022/05/28 03:43:12;;;;;;;14.10;1.80;;;10.90;99.30;;;;;;4993986;28;20030;-73
2022/05/28 03:45:38;;;;;;;10.57;2.17;;;10.90;99.30;;;;;;4994184;28;20479;-73
2022/05/28 03:48:06;;;;;;;19.47;2.53;;;11.00;99.40;;;;;;4994277;28;20034;-73
2022/05/28 03:50:31;;;;;;;18.60;2.03;;;10.90;99.40;;;;;;4992933;28;20037;-73
2022/05/28 03:52:57;;;;;;;12.00;1.97;;;10.80;99.30;;;;;;4993773;28;20038;-73
2022/05/28 03:55:23;;;;;;;12.07;1.73;;;10.90;99.40;;;;;;4993769;28;20031;-74
2022/05/28 03:57:48;;;;;;;16.92;1.95;;;10.80;99.30;;;;;;4994033;28;20090;-74
2022/05/28 04:00:15;;;;;;;16.30;2.33;;;10.90;99.30;;;;;;4994027;28;20042;-74
2022/05/28 04:02:41;;;;;;;12.00;1.43;;;10.90;99.40;;;;;;4993781;28;20489;-74
2022/05/28 04:05:07;;;;;;;11.83;1.50;;;10.90;99.50;;;;;;5009000;28;20031;-74
2022/05/28 04:07:33;;;;;;;15.85;1.90;;;10.90;99.50;;;;;;4976380;28;20034;-73
2022/05/28 04:09:58;;;;;;;12.23;1.67;;;10.90;99.40;;;;;;4994134;28;20041;-73
2022/05/28 04:12:24;;;;;;;19.17;2.80;;;10.90;99.50;;;;;;4992933;28;20093;-74
2022/05/28 04:14:50;;;;;;;11.07;1.80;;;10.90;99.50;;;;;;4993951;28;20038;-73
2022/05/28 04:17:16;;;;;;;10.97;2.03;;;11.00;99.40;;;;;;4993602;28;20050;-73
2022/05/28 04:19:41;;;;;;;12.75;1.83;;;11.00;99.40;;;;;;5008803;28;20081;-74
2022/05/28 04:22:08;;;;;;;11.60;1.67;;;11.00;99.40;;;;;;4992684;28;20034;-73
2022/05/28 04:24:34;;;;;;;9.47;1.97;;;11.00;99.30;;;;;;4993509;28;20026;-73
2022/05/28 04:27:00;;;;;;;11.03;1.80;;;11.00;99.20;;;;;;4993805;28;20033;-73
2022/05/28 04:29:26;;;;;;;13.57;1.80;;;11.00;99.20;;;;;;5008901;28;20030;-73
2022/05/28 04:31:51;;;;;;;11.80;2.08;;;11.10;99.20;;;;;;4992649;28;20030;-73
2022/05/28 04:34:17;;;;;;;9.35;2.15;;;11.10;99.20;;;;;;4993747;28;20058;-74
2022/05/28 04:36:42;;;;;;;11.70;1.70;;;11.10;99.30;;;;;;4993281;28;20478;-74
2022/05/28 04:39:08;;;;;;;9.13;1.90;;;11.10;99.20;;;;;;4995974;28;20092;-73
2022/05/28 04:41:34;;;;;;;11.90;2.25;;;11.10;99.20;;;;;;4997505;28;20033;-73
2022/05/28 04:43:59;;;;;;;18.35;1.95;;;11.10;99.20;;;;;;4997695;28;20084;-74
2022/05/28 04:46:25;;;;;;;13.10;2.10;;;11.10;99.20;;;;;;4996070;28;20030;-73
2022/05/28 04:48:51;;;;;;;12.15;1.70;;;11.10;99.20;;;;;;4996972;28;20030;-73
2022/05/28 04:51:16;;;;;;;12.00;1.70;;;11.20;99.20;;;;;;4996712;28;20030;-73
2022/05/28 04:53:42;;;;;;;13.50;2.33;;;11.20;99.20;;;;;;4997480;28;20443;-73
2022/05/28 04:56:08;;;;;;;14.23;2.10;;;11.20;99.10;;;;;;4997041;28;20093;-73
2022/05/28 04:58:34;;;;;;;9.43;1.30;;;11.20;99.00;;;;;;4997059;28;20109;-73
2022/05/28 05:00:59;;;;;;;9.98;1.60;;;11.20;99.00;;;;;;5011970;28;20058;-74
2022/05/28 05:03:25;;;;;;;8.07;1.30;;;11.40;99.00;;;;;;4996878;28;20034;-73
2022/05/28 05:05:51;;;;;;;7.70;1.27;;;11.30;98.90;;;;;;4995856;28;20054;-73
2022/05/28 05:08:16;;;;;;;11.80;1.30;;;11.30;98.80;;;;;;4996985;28;20036;-73
2022/05/28 05:10:44;;;;;;;12.98;2.13;;;11.40;98.70;;;;;;4996793;28;20030;-73
2022/05/28 05:13:10;;;;;;;8.65;1.48;;;11.40;98.70;;;;;;4996649;28;20031;-74
2022/05/28 05:15:37;;;;;;;9.90;1.40;;;11.40;98.60;;;;;;4996499;28;20557;-73
2022/05/28 05:18:03;;;;;;;12.20;2.72;;;11.40;98.50;;;;;;4996526;28;20566;-73
2022/05/28 05:20:29;;;;;;;9.43;1.60;;;11.50;98.40;;;;;;4996776;28;20050;-73
2022/05/28 05:22:56;;;;;;;8.10;1.00;;;11.50;98.10;;;;;;4996910;28;20102;-73
2022/05/28 05:25:21;;;;;;;11.30;1.20;;;11.50;98.10;;;;;;4996586;28;20031;-74
2022/05/28 05:27:47;;;;;;;7.57;0.90;;;11.60;98.10;;;;;;4996496;28;20045;-73
2022/05/28 05:30:13;;;;;;;11.45;2.10;;;11.60;97.90;;;;;;4995356;28;20036;-74
2022/05/28 05:32:39;;;;;;;8.05;1.17;;;11.70;97.80;;;;;;4996537;28;20524;-72
2022/05/28 05:35:05;;;;;;;10.10;1.20;;;11.70;97.40;;;;;;4996276;28;20035;-72
2022/05/28 05:37:31;;;;;;;7.82;0.85;;;11.80;97.40;;;;;;4996162;28;20070;-73
2022/05/28 05:39:57;;;;;;;10.85;1.00;;;11.80;97.00;;;;;;4996409;28;20113;-72
2022/05/28 05:42:22;;;;;;;9.35;0.90;;;11.90;96.90;;;;;;4978907;28;20035;-74
2022/05/28 05:44:48;;;;;;;8.98;1.02;;;11.90;96.50;;;;;;4996385;28;20030;-72
2022/05/28 05:47:14;;;;;;;7.15;0.57;;;11.90;96.30;;;;;;4995150;28;20033;-72
2022/05/28 05:49:39;;;;;;;12.02;1.88;;;12.00;96.30;;;;;;4996047;28;20045;-72
2022/05/28 05:52:05;;;;;;;10.30;0.90;;;12.00;96.20;;;;;;4995826;28;20022;-72
2022/05/28 05:54:31;;;;;;;5.60;0.60;;;11.90;95.90;;;;;;4995927;28;20109;-72
2022/05/28 05:56:58;;;;;;;7.93;1.20;;;12.00;95.80;;;;;;4995015;28;20070;-73
2022/05/28 05:59:23;;;;;;;9.63;0.80;;;12.00;95.70;;;;;;4993295;28;20932;-74
2022/05/28 06:01:50;;;;;;;4.85;0.60;;;12.00;94.80;;;;;;4998437;28;20034;-72
2022/05/28 06:04:16;;;;;;;6.32;0.60;;;12.00;94.40;;;;;;4996385;28;20117;-75
2022/05/28 06:06:42;;;;;;;7.60;0.70;;;12.10;94.40;;;;;;4997601;28;20031;-74
2022/05/28 06:09:08;;;;;;;7.50;0.63;;;12.10;94.40;;;;;;4997235;28;20085;-73
2022/05/28 06:11:34;;;;;;;7.13;0.93;;;12.10;94.00;;;;;;4997035;28;20121;-74
2022/05/28 06:14:00;;;;;;;13.70;1.65;;;12.20;93.70;;;;;;4996931;28;20562;-73
2022/05/28 06:16:26;;;;;;;6.10;0.80;;;12.20;93.30;;;;;;4995070;28;20074;-75
2022/05/28 06:18:52;;;;;;;8.07;0.70;;;12.20;93.00;;;;;;4993463;28;20030;-74
2022/05/28 06:21:18;;;;;;;9.68;0.80;;;12.20;92.70;;;;;;4994770;28;20034;-73
2022/05/28 06:23:43;;;;;;;6.53;1.38;;;12.20;92.60;;;;;;4995032;28;20034;-74
2022/05/28 06:26:10;;;;;;;10.73;1.00;;;12.20;92.10;;;;;;4993845;28;20061;-74
2022/05/28 06:28:36;;;;;;;11.10;0.60;;;12.30;92.20;;;;;;4995437;28;20117;-73
2022/05/28 06:31:07;;;;;;;11.07;0.88;;;12.40;92.10;;;;;;4994961;28;20041;-73
2022/05/28 06:33:35;;;;;;;7.32;0.70;;;12.30;92.00;;;;;;4994930;28;20062;-74
2022/05/28 06:36:02;;;;;;;9.48;0.82;;;12.40;91.90;;;;;;4994925;28;20026;-74
2022/05/28 06:38:28;;;;;;;8.48;1.08;;;12.50;91.60;;;;;;4994912;28;20034;-73
2022/05/28 06:40:54;;;;;;;5.30;0.68;;;12.50;91.30;;;;;;4993757;28;20030;-74
2022/05/28 06:43:20;;;;;;;6.57;1.02;;;12.60;90.70;;;;;;4993987;28;20043;-75
2022/05/28 06:45:47;;;;;;;6.78;0.82;;;12.50;90.80;;;;;;4995021;28;20026;-75
2022/05/28 06:48:13;;;;;;;9.10;1.05;;;12.60;90.50;;;;;;4994747;28;20038;-75
2022/05/28 06:53:23;;;;;;;7.00;0.50;;;12.80;90.10;;;;;;4994271;28;20052;-76
2022/05/28 06:55:49;;;;;;;11.20;0.82;;;12.90;88.90;;;;;;4976989;28;20038;-74
2022/05/28 06:58:15;;;;;;;10.13;0.75;;;12.90;88.60;;;;;;4994548;28;20034;-76
2022/05/28 07:00:41;;;;;;;6.20;0.55;;;13.10;88.50;;;;;;4992248;28;20026;-75
2022/05/28 07:03:12;;;;;;;2.58;0.55;;;13.20;86.20;;;;;;4993106;28;20027;-76
2022/05/28 07:05:39;;;;;;;6.35;1.30;;;13.30;84.90;;;;;;4992703;28;20042;-76
2022/05/28 07:08:05;;;;;;;7.47;0.75;;;13.40;80.80;;;;;;4993868;28;20125;-75
2022/05/28 07:10:31;;;;;;;4.90;0.55;;;13.40;77.80;;;;;;4993985;28;20077;-75
2022/05/28 07:12:56;;;;;;;10.50;1.35;;;13.40;77.70;;;;;;4993974;28;20526;-74
2022/05/28 07:15:23;;;;;;;10.40;0.90;;;13.40;76.60;;;;;;4994129;28;20038;-76
2022/05/28 07:17:49;;;;;;;7.10;0.85;;;13.40;78.50;;;;;;4993923;28;20050;-73
2022/05/28 08:43:34;;;;;;;8.95;1.10;;;14.50;72.70;;;;;;4978407;23;20056;-87
2022/05/28 08:46:03;;;;;;;5.50;0.80;;;14.60;71.70;;;;;;5012346;28;20037;-89
2022/05/28 08:48:45;;;;;;;5.78;1.00;;;14.50;70.70;;;;;;5024123;28;20029;-87
2022/05/28 08:51:22;;;;;;;8.40;0.95;;;14.50;70.60;;;;;;5021007;28;20029;-88
2022/05/28 08:54:04;;;;;;;7.38;0.90;;;14.50;68.60;;;;;;5022713;28;20021;-87
2022/05/28 08:56:32;;;;;;;8.48;0.80;;;14.50;69.80;;;;;;5038924;28;20033;-87
2022/05/28 08:59:14;;;;;;;7.93;0.82;;;14.60;69.40;;;;;;5020129;28;20029;-88
2022/05/28 09:01:41;;;;;;;6.80;0.63;;;14.70;69.70;;;;;;5020195;28;20493;-87
2022/05/28 09:04:18;;;;;;;4.65;1.17;;;14.90;68.20;;;;;;5003631;28;20402;-87
2022/05/28 09:06:53;;;;;;;4.72;0.60;;;15.10;67.50;;;;;;5037721;28;20029;-87
2022/05/28 09:09:34;;;;;;;6.35;0.60;;;15.20;67.90;;;;;;5019775;28;20634;-88
2022/05/28 09:12:03;;;;;;;11.77;0.80;;;15.20;66.70;;;;;;5019322;28;20113;-87
2022/05/28 09:14:32;;;;;;;8.07;1.17;;;15.10;67.00;;;;;;5035265;28;20034;-84
2022/05/28 09:17:09;;;;;;;8.13;1.15;;;15.00;66.30;;;;;;5018460;28;20042;-86
2022/05/28 09:19:40;;;;;;;7.85;0.82;;;14.90;67.10;;;;;;5018625;28;20117;-87
2022/05/28 09:22:06;;;;;;;7.80;0.80;;;14.90;67.90;;;;;;5035191;28;20037;-87
2022/05/28 09:24:33;;;;;;;5.43;0.80;;;14.90;67.80;;;;;;5019371;28;20030;-88
2022/05/28 09:27:13;;;;;;;7.70;0.70;;;15.00;67.60;;;;;;5020071;28;20033;-87
2022/05/28 09:30:13;;;;;;;6.07;1.10;;;15.10;67.40;;;;;;5019926;28;20033;-88
2022/05/28 09:32:41;;;;;;;12.93;1.08;;;15.30;67.30;;;;;;5036111;28;20071;-87
2022/05/28 09:35:29;;;;;;;5.55;0.80;;;15.40;66.20;;;;;;5018653;28;20121;-87
2022/05/28 09:38:16;;;;;;;10.75;1.20;;;15.40;66.30;;;;;;5022011;28;20474;-87
2022/05/28 09:40:50;;;;;;;8.43;0.80;;;15.40;66.60;;;;;;5018580;28;20021;-88
2022/05/28 09:43:44;;;;;;;7.32;0.90;;;15.40;66.90;;;;;;5018160;28;20120;-87
2022/05/28 09:46:27;;;;;;;5.43;0.80;;;15.50;66.60;;;;;;5018414;28;20346;-88
2022/05/28 09:49:04;;;;;;;7.25;1.00;;;15.60;65.50;;;;;;5017163;28;20029;-86
2022/05/28 09:51:32;;;;;;;5.35;1.60;;;15.60;65.10;;;;;;5032953;28;20389;-84
2022/05/28 09:54:23;;;;;;;4.90;0.65;;;15.70;65.60;;;;;;5016731;28;20400;-84
2022/05/28 09:57:00;;;;;;;7.30;0.70;;;15.80;66.40;;;;;;5017498;28;20448;-85
2022/05/28 09:59:27;;;;;;;8.35;0.85;;;15.80;65.60;;;;;;5017364;28;20029;-85
2022/05/28 10:01:58;;;;;;;4.75;0.52;;;15.90;65.40;;;;;;5034068;28;20022;-86
2022/05/28 10:04:30;;;;;;;3.90;0.88;;;15.90;65.60;;;;;;5016148;28;20602;-85
2022/05/28 10:06:59;;;;;;;10.63;1.02;;;15.90;66.00;;;;;;5018688;28;20025;-85
2022/05/28 10:09:31;;;;;;;4.10;0.60;;;16.10;66.40;;;;;;5036354;28;20104;-85
2022/05/28 10:12:10;;;;;;;5.05;0.60;;;16.20;66.00;;;;;;5018172;28;20104;-86
2022/05/28 10:14:36;;;;;;;5.07;0.45;;;16.30;65.70;;;;;;5034778;28;20029;-85
2022/05/28 10:17:03;;;;;;;4.95;0.70;;;16.40;65.50;;;;;;5017512;28;20041;-86
2022/05/28 10:19:31;;;;;;;6.55;1.00;;;16.50;65.30;;;;;;5018032;28;20432;-84
2022/05/28 10:21:59;;;;;;;5.90;0.98;;;16.50;65.00;;;;;;5018909;28;20565;-84
2022/05/28 10:24:28;;;;;;;7.20;0.77;;;16.50;64.90;;;;;;5036324;28;20389;-85
2022/05/28 10:26:58;;;;;;;5.90;0.77;;;16.50;64.90;;;;;;5036085;28;20022;-84
2022/05/28 10:29:28;;;;;;;3.83;0.80;;;16.50;64.80;;;;;;5018592;28;20071;-86
2022/05/28 10:31:57;;;;;;;6.22;1.17;;;16.60;64.70;;;;;;5017661;28;20033;-85
2022/05/28 10:34:35;;;;;;;4.00;0.60;;;16.60;64.70;;;;;;5016429;28;20025;-88
2022/05/28 10:39:43;;;;;;;4.25;0.60;;;16.80;63.20;;;;;;4991252;28;20540;-81
2022/05/28 10:42:12;;;;;;;7.38;0.82;;;16.90;62.90;;;;;;4992533;28;20049;-80
2022/05/28 10:44:40;;;;;;;5.47;0.70;;;17.00;62.60;;;;;;4995797;28;20384;-81
2022/05/28 10:47:48;;;;;;;5.10;0.75;;;17.00;62.30;;;;;;4994485;28;20470;-80
2022/05/28 10:50:32;;;;;;;6.20;0.77;;;17.00;62.20;;;;;;4985071;28;20089;-79
2022/05/28 10:53:01;;;;;;;4.13;0.73;;;17.20;62.40;;;;;;4988040;28;20519;-83
2022/05/28 10:55:37;;;;;;;6.35;0.95;;;17.30;62.20;;;;;;4995150;28;20076;-79
2022/05/28 10:58:25;;;;;;;5.20;0.85;;;17.40;61.30;;;;;;4993705;28;20023;-78
2022/05/28 11:01:14;;;;;;;6.15;0.70;;;17.60;60.80;;;;;;4993516;28;20520;-80
2022/05/28 11:03:58;;;;;;;7.78;1.00;;;17.70;60.70;;;;;;4984222;28;20060;-80
2022/05/28 11:06:51;;;;;;;5.30;0.60;;;17.90;60.80;;;;;;4994045;28;20122;-82
2022/05/28 11:09:48;;;;;;;5.20;0.77;;;18.10;60.70;;;;;;4994529;28;20138;-82
2022/05/28 11:12:17;;;;;;;8.93;1.48;;;18.30;60.10;;;;;;4976458;28;20045;-82
2022/05/28 11:15:12;;;;;;;4.60;0.75;;;18.40;59.80;;;;;;4993335;28;20061;-80
2022/05/28 11:17:55;;;;;;;4.90;0.70;;;18.50;59.50;;;;;;4993955;28;20081;-79
2022/05/28 11:20:21;;;;;;;4.90;0.60;;;18.60;59.30;;;;;;4993941;28;20125;-82
2022/05/28 11:23:02;;;;;;;7.18;0.73;;;18.50;59.10;;;;;;4995173;28;20062;-80
2022/05/28 11:25:46;;;;;;;6.10;0.88;;;18.50;58.60;;;;;;4994703;28;20030;-79
2022/05/28 11:28:20;;;;;;;7.05;1.00;;;18.50;58.10;;;;;;4994270;28;20033;-82
2022/05/28 11:30:47;;;;;;;;;;;18.60;58.00;;;;;;4980953;28;20441;-81
2022/05/28 11:33:35;;;;;;;5.43;0.50;;;18.80;57.80;;;;;;4977174;28;20254;-80
2022/05/28 11:36:10;;;;;;;4.43;0.57;;;19.00;57.20;;;;;;4975017;28;20062;-80
2022/05/28 11:38:48;;;;;;;3.95;0.82;;;19.20;56.20;;;;;;4975097;28;20055;-79
2022/05/28 11:41:24;;;;;;;4.57;0.60;;;19.30;55.30;;;;;;4973944;28;20491;-80
2022/05/28 11:44:02;;;;;;;5.18;0.82;;;19.50;54.50;;;;;;4973948;28;20026;-79
2022/05/28 11:46:47;;;;;;;1.90;0.40;;;19.60;53.60;;;;;;4975673;28;20027;-79
2022/05/28 11:52:21;;;;;;;6.00;0.70;;;19.70;53.10;;;;;;4975241;28;20089;-81
2022/05/28 11:54:54;;;;;;;4.20;0.70;;;20.00;52.60;;;;;;4973201;28;20569;-80
2022/05/28 11:57:27;;;;;;;3.90;0.47;;;20.10;52.00;;;;;;4974754;28;20058;-80
2022/05/28 11:59:55;;;;;;;1.77;0.50;;;20.40;51.50;;;;;;4974743;28;20045;-81
2022/05/28 12:02:28;;;;;;;5.57;0.70;;;20.60;51.00;;;;;;4975069;28;20031;-79
2022/05/28 12:04:53;;;;;;;4.30;0.63;;;20.70;50.40;;;;;;4974958;28;20031;-79
2022/05/28 12:07:40;;;;;;;3.20;0.82;;;20.70;50.10;;;;;;4975177;28;20490;-81
2022/05/28 12:10:13;;;;;;;4.18;0.77;;;20.60;49.70;;;;;;4975571;28;20106;-81
2022/05/28 12:12:55;;;;;;;;;;;20.60;49.90;;;;;;4976065;28;20029;-83
2022/05/28 12:15:26;;;;;;;6.70;0.70;;;20.80;49.90;;;;;;4975498;28;20362;-82
2022/05/28 12:17:55;;;;;;;3.67;0.70;;;20.90;50.10;;;;;;4973370;28;20051;-80
2022/05/28 12:20:33;;;;;;;4.55;0.60;;;20.90;49.60;;;;;;4973811;28;20023;-80
2022/05/28 12:23:03;;;;;;;5.78;0.70;;;20.90;49.40;;;;;;4972981;28;20026;-80
2022/05/28 12:25:29;;;;;;;6.00;0.90;;;20.80;49.30;;;;;;4975534;28;20022;-80
2022/05/28 12:27:55;;;;;;;4.03;0.70;;;20.70;49.40;;;;;;4975070;28;20041;-79
2022/05/28 12:30:37;;;;;;;4.07;0.70;;;20.60;49.50;;;;;;4973460;28;20122;-80
2022/05/28 12:33:04;;;;;;;4.65;0.70;;;20.60;49.60;;;;;;4974363;28;20027;-80
2022/05/28 12:36:08;;;;;;;5.22;0.60;;;20.90;49.90;;;;;;4973444;28;20054;-82
2022/05/28 12:38:52;;;;;;;4.60;0.60;;;21.20;49.20;;;;;;4974752;28;20521;-80
2022/05/28 12:41:36;;;;;;;4.28;0.45;;;21.50;48.50;;;;;;4974317;28;20031;-80
2022/05/28 12:44:10;;;;;;;2.83;0.50;;;21.80;48.50;;;;;;4974132;28;20118;-82
2022/05/28 12:46:40;;;;;;;2.88;0.43;;;22.10;47.60;;;;;;4976807;28;20082;-82
2022/05/28 12:49:12;;;;;;;2.83;0.60;;;22.30;47.30;;;;;;4994338;28;20034;-82
2022/05/28 12:51:52;;;;;;;4.25;0.55;;;22.40;46.80;;;;;;4993904;28;20022;-79
2022/05/28 12:54:27;;;;;;;4.00;0.50;;;22.40;46.30;;;;;;4994091;28;20041;-81
2022/05/28 12:57:06;;;;;;;3.50;0.60;;;22.50;45.90;;;;;;4993039;28;20049;-80
2022/05/28 12:59:35;;;;;;;4.15;0.60;;;22.70;45.50;;;;;;4997622;28;20022;-82
2022/05/28 13:02:16;;;;;;;2.90;0.60;;;22.80;45.70;;;;;;4996284;28;20069;-81
2022/05/28 13:05:15;;;;;;;4.43;0.60;;;23.00;45.30;;;;;;4997835;28;20497;-82
2022/05/28 13:07:47;;;;;;;3.60;0.55;;;23.20;45.20;;;;;;4996734;28;20042;-82
2022/05/28 13:10:18;;;;;;;4.85;0.88;;;23.20;45.10;;;;;;4997848;28;20038;-80
2022/05/28 13:12:56;;;;;;;4.80;0.77;;;23.30;45.30;;;;;;4996327;28;20030;-80
2022/05/28 13:15:42;;;;;;;4.93;1.05;;;23.20;45.50;;;;;;4997401;28;20184;-80
2022/05/28 13:18:38;;;;;;;6.72;1.05;;;23.20;45.60;;;;;;4996320;28;20109;-83
2022/05/28 13:21:34;;;;;;;5.75;0.77;;;23.10;45.40;;;;;;4997617;28;20030;-81
2022/05/28 13:24:22;;;;;;;4.63;0.80;;;22.80;45.70;;;;;;4997355;28;20018;-79
2022/05/28 13:27:18;;;;;;;4.60;0.70;;;22.60;45.90;;;;;;4995812;28;20042;-81
2022/05/28 13:30:04;;;;;;;3.75;0.50;;;22.50;46.20;;;;;;4998586;28;20110;-81
2022/05/28 13:32:50;;;;;;;5.78;0.85;;;22.50;46.10;;;;;;4997020;28;20363;-80
2022/05/28 13:35:17;;;;;;;7.05;0.80;;;22.60;45.90;;;;;;4996002;28;20506;-80
2022/05/28 13:37:45;;;;;;;5.20;0.95;;;22.80;45.90;;;;;;4996838;28;20134;-84
2022/05/28 13:40:18;;;;;;;8.52;0.90;;;23.10;45.70;;;;;;4995691;28;20478;-82
2022/05/28 13:42:45;;;;;;;7.88;1.00;;;23.30;45.60;;;;;;4996854;28;20426;-81
2022/05/28 13:45:11;;;;;;;6.32;0.70;;;23.30;45.40;;;;;;4980885;28;20038;-81
2022/05/28 13:47:39;;;;;;;7.10;0.77;;;23.30;45.20;;;;;;4980725;28;20037;-82
2022/05/28 13:50:07;;;;;;;3.83;0.90;;;23.20;45.00;;;;;;4996635;28;20065;-79
2022/05/28 13:52:38;;;;;;;5.13;0.70;;;23.30;44.70;;;;;;4997966;28;20093;-81
2022/05/28 13:55:08;;;;;;;5.72;0.90;;;23.30;44.60;;;;;;4998005;28;20018;-81
2022/05/28 13:57:39;;;;;;;3.42;0.57;;;23.30;44.50;;;;;;4997114;28;20360;-80
2022/05/28 14:00:27;;;;;;;5.55;1.10;;;23.50;44.30;;;;;;4999322;28;20018;-79
2022/05/28 14:03:00;;;;;;;1.80;0.40;;;23.50;43.60;;;;;;4998352;28;20030;-81
2022/05/28 14:05:45;;;;;;;4.22;0.50;;;23.60;42.80;;;;;;4999530;28;20030;-80
2022/05/28 14:08:20;;;;;;;3.53;0.57;;;23.70;41.80;;;;;;4996596;28;20034;-81
2022/05/28 14:10:46;;;;;;;4.72;0.57;;;24.00;41.60;;;;;;4996062;28;20073;-82
2022/05/28 14:13:32;;;;;;;4.90;0.90;;;24.20;41.50;;;;;;4981210;28;20494;-81
2022/05/28 14:15:58;;;;;;;2.60;0.50;;;24.40;40.70;;;;;;4999088;28;20030;-80
2022/05/28 14:18:27;;;;;;;3.22;0.60;;;24.50;41.10;;;;;;4999265;28;20057;-80
2022/05/28 14:21:08;;;;;;;4.85;0.60;;;24.50;41.00;;;;;;4997803;28;20030;-81
2022/05/28 14:23:45;;;;;;;5.40;1.00;;;24.50;40.90;;;;;;5001539;28;20038;-80
2022/05/28 14:26:14;;;;;;;2.92;0.45;;;24.50;40.90;;;;;;4998897;28;20426;-81
2022/05/28 14:28:45;;;;;;;5.60;0.90;;;24.50;41.00;;;;;;4996408;28;20106;-80
2022/05/28 14:31:13;;;;;;;7.03;1.00;;;24.30;41.40;;;;;;4996223;28;20147;-80
2022/05/28 14:33:41;;;;;;;5.88;0.70;;;24.10;41.80;;;;;;4996068;28;20033;-83
2022/05/28 14:36:07;;;;;;;3.83;1.00;;;23.80;42.20;;;;;;4995838;28;20474;-82